1FL5 weather

West Bay Creek Seaplane Base
West Bay, Florida, United States

Public forecast

Using degrees Fahrenheit for public forecast. Weather courtesy of forecast.io.

METAR (pilot weather report)

Closest report is Northwest Florida Beaches International Airport, 4.9 nm (9.0 km) NE. Retrieved 2017/10/23 03:31 UTC (0 seconds ago):

KECP 230331Z AUTO 09005KT 10SM FEW009 SCT015 BKN070 23/22 A3001 RMK AO2 RAE11 P0001 T02280222

TAF (pilot weather forecast)

Forecast is more than 12 hours old.

Closest forecast is Northwest Florida Beaches International Airport, 4.9 nm (9.0 km) NE. Retrieved 2017/10/22 00:36 UTC (1 day ago):

TAF KECP 222335Z 2300/2324 12007KT P6SM BKN070 FM230100 12008KT 6SM -TSRA BKN025CB OVC070 TEMPO 2309/2313 VRB15G25KT 2SM TSRA BKN012CB OVC040 FM231300 21010KT 6SM -TSRA BKN025CB OVC070 FM231600 28011KT P6SM SCT030